Time;durP1;ratioP1;P1;durP2;ratioP2;P2;SDS_P1;SDS_P2;PMS_P1;PMS_P2;Temp;Humidity;BMP_temperature;BMP_pressure;BME280_temperature;BME280_humidity;BME280_pressure;Samples;Min_cycle;Max_cycle;Signal;HPM_P1;HPM_P2
2023/10/10 00:01:43;;;;;;;3.50;2.00;;;;;;;;;;5021173;28;20456;-71
2023/10/10 00:04:11;;;;;;;3.43;1.70;;;;;;;;;;5006875;28;20473;-71
2023/10/10 00:06:39;;;;;;;3.23;1.57;;;;;;;;;;5015735;28;20471;-71
2023/10/10 00:09:10;;;;;;;4.70;1.70;;;;;;;;;;5010466;28;20441;-70
2023/10/10 00:11:41;;;;;;;4.67;1.60;;;;;;;;;;5005845;28;20511;-71
2023/10/10 00:14:17;;;;;;;3.27;1.53;;;;;;;;;;5000184;28;20475;-70
2023/10/10 00:16:47;;;;;;;3.70;2.03;;;;;;;;;;5013852;28;20948;-70
2023/10/10 00:19:29;;;;;;;4.47;1.93;;;;;;;;;;5019315;28;20495;-72
2023/10/10 00:21:57;;;;;;;4.40;1.17;;;;;;;;;;5017411;28;20504;-71
2023/10/10 00:24:30;;;;;;;3.60;1.87;;;;;;;;;;5007815;28;20816;-72
2023/10/10 00:26:58;;;;;;;4.40;1.70;;;;;;;;;;5013341;28;20839;-72
2023/10/10 00:29:26;;;;;;;3.63;1.50;;;;;;;;;;5007186;28;20902;-70
2023/10/10 00:32:05;;;;;;;3.40;1.70;;;;;;;;;;5008196;28;20536;-71
2023/10/10 00:34:34;;;;;;;3.87;2.33;;;;;;;;;;5018815;28;20649;-71
2023/10/10 00:37:07;;;;;;;6.90;2.37;;;;;;;;;;5008549;28;20539;-70
2023/10/10 00:39:36;;;;;;;4.80;1.60;;;;;;;;;;5001278;28;20872;-72
2023/10/10 00:42:08;;;;;;;4.23;1.80;;;;;;;;;;5003030;28;20561;-70
2023/10/10 00:44:38;;;;;;;4.17;2.10;;;;;;;;;;5007058;28;20925;-71
2023/10/10 00:47:12;;;;;;;7.50;2.90;;;;;;;;;;5014321;28;20800;-70
2023/10/10 00:49:43;;;;;;;9.43;1.70;;;;;;;;;;5006597;28;20451;-73
2023/10/10 00:52:12;;;;;;;3.20;1.80;;;;;;;;;;5004794;28;20460;-70
2023/10/10 00:54:45;;;;;;;4.80;1.77;;;;;;;;;;5008015;28;20499;-70
2023/10/10 00:57:13;;;;;;;4.53;2.00;;;;;;;;;;5006073;28;20460;-70
2023/10/10 00:59:47;;;;;;;3.30;1.47;;;;;;;;;;5025174;28;20564;-69
2023/10/10 01:02:20;;;;;;;4.83;1.57;;;;;;;;;;5006455;28;20477;-70
2023/10/10 01:04:57;;;;;;;6.03;1.47;;;;;;;;;;5010603;28;20479;-70
2023/10/10 01:07:28;;;;;;;3.97;1.90;;;;;;;;;;5012267;28;20549;-70
2023/10/10 01:10:07;;;;;;;3.20;1.33;;;;;;;;;;5020754;28;20479;-71
2023/10/10 01:12:36;;;;;;;5.00;1.97;;;;;;;;;;5011840;28;20465;-71
2023/10/10 01:15:08;;;;;;;3.73;1.40;;;;;;;;;;5011149;28;20547;-70
2023/10/10 01:17:38;;;;;;;8.10;2.90;;;;;;;;;;5011163;28;20552;-70
2023/10/10 01:20:18;;;;;;;3.10;2.23;;;;;;;;;;5024477;28;20472;-70
2023/10/10 01:22:48;;;;;;;4.27;1.93;;;;;;;;;;5014713;28;20461;-70
2023/10/10 01:25:43;;;;;;;2.97;1.10;;;;;;;;;;5011484;28;21007;-71
2023/10/10 01:28:27;;;;;;;4.90;1.63;;;;;;;;;;5012574;28;20451;-70
2023/10/10 01:31:03;;;;;;;2.80;1.30;;;;;;;;;;5008703;28;20448;-72
2023/10/10 01:33:36;;;;;;;3.43;1.97;;;;;;;;;;5009516;28;20449;-71
2023/10/10 01:36:11;;;;;;;4.57;1.77;;;;;;;;;;5002108;28;20506;-70
2023/10/10 01:38:55;;;;;;;4.77;1.93;;;;;;;;;;4999624;28;20463;-71
2023/10/10 01:41:24;;;;;;;6.83;1.77;;;;;;;;;;5006890;28;20478;-70
2023/10/10 01:43:53;;;;;;;3.90;2.53;;;;;;;;;;5011525;28;20818;-70
2023/10/10 01:46:27;;;;;;;4.00;1.50;;;;;;;;;;5007017;28;20554;-69
2023/10/10 01:48:54;;;;;;;7.83;1.60;;;;;;;;;;5005693;28;20899;-70
2023/10/10 01:51:24;;;;;;;3.00;1.60;;;;;;;;;;5005236;28;20468;-69
2023/10/10 01:53:55;;;;;;;5.00;1.73;;;;;;;;;;5014944;28;20469;-69
2023/10/10 01:56:23;;;;;;;3.70;1.73;;;;;;;;;;5009228;28;20919;-70
2023/10/10 01:58:53;;;;;;;7.13;1.77;;;;;;;;;;4996962;28;20484;-70
2023/10/10 02:01:24;;;;;;;6.57;2.70;;;;;;;;;;5012071;28;20540;-70
2023/10/10 02:03:53;;;;;;;5.40;1.60;;;;;;;;;;5001314;28;20488;-70
2023/10/10 02:06:24;;;;;;;4.93;1.80;;;;;;;;;;5002538;28;20477;-70
2023/10/10 02:08:53;;;;;;;3.07;2.00;;;;;;;;;;5013330;28;20448;-70
2023/10/10 02:11:21;;;;;;;4.40;1.83;;;;;;;;;;5014665;28;20467;-70
2023/10/10 02:13:48;;;;;;;3.97;1.23;;;;;;;;;;5010329;28;20914;-70
2023/10/10 02:16:17;;;;;;;3.27;2.03;;;;;;;;;;5008823;28;20837;-71
2023/10/10 02:18:51;;;;;;;2.90;1.40;;;;;;;;;;5003090;28;20988;-71
2023/10/10 02:21:31;;;;;;;3.80;1.50;;;;;;;;;;5017657;28;20470;-71
2023/10/10 02:24:12;;;;;;;4.53;2.53;;;;;;;;;;5003719;28;20483;-70
2023/10/10 02:26:40;;;;;;;4.93;1.27;;;;;;;;;;5010992;28;20455;-70
2023/10/10 02:29:17;;;;;;;3.83;1.47;;;;;;;;;;5016461;28;20450;-69
2023/10/10 02:31:49;;;;;;;6.33;2.13;;;;;;;;;;5014933;28;20448;-69
2023/10/10 02:34:19;;;;;;;8.80;1.87;;;;;;;;;;5002328;28;20487;-70
2023/10/10 02:37:05;;;;;;;5.50;2.17;;;;;;;;;;5006039;28;20766;-69
2023/10/10 02:39:40;;;;;;;4.70;1.83;;;;;;;;;;5008733;28;20467;-69
2023/10/10 02:42:13;;;;;;;5.20;2.63;;;;;;;;;;5016476;28;20454;-70
2023/10/10 02:44:46;;;;;;;3.77;1.83;;;;;;;;;;5009853;28;20466;-71
2023/10/10 02:47:14;;;;;;;3.93;1.60;;;;;;;;;;5014578;28;20457;-71
2023/10/10 02:49:42;;;;;;;10.03;3.27;;;;;;;;;;5015405;28;20953;-70
2023/10/10 02:52:14;;;;;;;6.50;1.80;;;;;;;;;;5007865;28;20849;-70
2023/10/10 02:54:53;;;;;;;3.27;1.20;;;;;;;;;;4997544;28;20519;-70
2023/10/10 02:57:30;;;;;;;7.20;2.23;;;;;;;;;;5014251;28;20524;-70
2023/10/10 03:00:15;;;;;;;3.10;1.83;;;;;;;;;;5007127;28;21030;-70
2023/10/10 03:02:49;;;;;;;4.57;2.30;;;;;;;;;;4998772;28;20486;-71
2023/10/10 03:05:20;;;;;;;4.20;2.03;;;;;;;;;;5010533;28;20530;-72
2023/10/10 03:07:51;;;;;;;5.47;1.97;;;;;;;;;;5007708;28;20439;-70
2023/10/10 03:10:22;;;;;;;3.60;1.40;;;;;;;;;;5019358;28;20447;-72
2023/10/10 03:12:51;;;;;;;4.43;1.80;;;;;;;;;;5002842;28;20453;-71
2023/10/10 03:15:28;;;;;;;4.60;2.27;;;;;;;;;;5003394;28;20499;-69
2023/10/10 03:18:17;;;;;;;4.50;1.90;;;;;;;;;;4998931;28;21049;-70
2023/10/10 03:21:12;;;;;;;6.10;1.53;;;;;;;;;;5015365;28;21060;-70
2023/10/10 03:23:52;;;;;;;2.97;1.30;;;;;;;;;;5006713;28;20595;-70
2023/10/10 03:26:32;;;;;;;3.93;1.47;;;;;;;;;;5013262;28;20443;-68
2023/10/10 03:29:04;;;;;;;8.20;2.30;;;;;;;;;;5012908;28;20452;-69
2023/10/10 03:31:39;;;;;;;5.63;2.03;;;;;;;;;;5022347;28;20455;-69
2023/10/10 03:34:18;;;;;;;9.23;2.93;;;;;;;;;;5016636;28;20463;-69
2023/10/10 03:36:45;;;;;;;3.80;1.77;;;;;;;;;;5011870;28;20519;-70
2023/10/10 05:23:54;;;;;;;4.33;2.03;;;;;;;;;;5009103;28;20489;-68
2023/10/10 05:26:21;;;;;;;5.27;4.07;;;;;;;;;;5011343;28;20447;-67
2023/10/10 05:28:48;;;;;;;7.10;2.23;;;;;;;;;;5001317;28;20863;-68
2023/10/10 05:31:21;;;;;;;8.80;1.53;;;;;;;;;;5010435;28;20975;-69
2023/10/10 05:33:48;;;;;;;12.70;2.97;;;;;;;;;;5021043;28;20493;-69
2023/10/10 05:36:18;;;;;;;5.53;1.80;;;;;;;;;;5007477;28;20457;-68
2023/10/10 05:38:46;;;;;;;4.90;2.50;;;;;;;;;;5018813;28;20460;-69
2023/10/10 05:41:13;;;;;;;3.50;1.83;;;;;;;;;;5006163;28;20542;-69
2023/10/10 05:43:40;;;;;;;5.23;2.13;;;;;;;;;;5017846;28;20505;-68
2023/10/10 05:46:08;;;;;;;5.83;2.10;;;;;;;;;;5006003;28;20476;-68
2023/10/10 05:48:36;;;;;;;2.57;1.20;;;;;;;;;;5003084;28;20927;-68
2023/10/10 05:51:04;;;;;;;4.80;1.47;;;;;;;;;;5007980;28;20456;-68
2023/10/10 05:53:33;;;;;;;6.33;1.60;;;;;;;;;;5006716;28;20988;-68
2023/10/10 05:56:12;;;;;;;3.83;1.80;;;;;;;;;;5008053;28;20567;-68
2023/10/10 05:58:39;;;;;;;4.60;2.33;;;;;;;;;;5009235;28;20529;-68
2023/10/10 06:01:09;;;;;;;4.70;2.23;;;;;;;;;;5008191;28;20464;-68
2023/10/10 06:03:38;;;;;;;6.13;2.30;;;;;;;;;;5009603;28;20461;-67
2023/10/10 06:06:05;;;;;;;4.53;1.90;;;;;;;;;;5009928;28;20551;-68
2023/10/10 06:08:36;;;;;;;5.07;2.57;;;;;;;;;;5006275;28;20511;-68
2023/10/10 06:11:06;;;;;;;8.80;2.17;;;;;;;;;;5015742;28;20481;-69
2023/10/10 06:13:39;;;;;;;3.00;1.60;;;;;;;;;;5004077;28;20468;-68
2023/10/10 06:16:12;;;;;;;3.83;1.90;;;;;;;;;;5011030;28;20555;-68
2023/10/10 06:18:41;;;;;;;3.80;1.73;;;;;;;;;;5007788;28;20462;-68
2023/10/10 06:21:08;;;;;;;4.60;1.80;;;;;;;;;;5016553;28;20448;-68
2023/10/10 06:23:37;;;;;;;3.93;1.57;;;;;;;;;;5012824;28;20440;-69
2023/10/10 06:26:06;;;;;;;9.20;2.10;;;;;;;;;;5008032;28;20938;-69
2023/10/10 06:28:37;;;;;;;3.50;1.90;;;;;;;;;;5009599;28;20482;-69
2023/10/10 06:31:10;;;;;;;4.00;2.03;;;;;;;;;;5016442;28;20629;-69
2023/10/10 06:33:40;;;;;;;5.23;1.90;;;;;;;;;;5006956;28;20861;-68
2023/10/10 06:36:32;;;;;;;3.47;1.60;;;;;;;;;;5013469;28;20466;-68
2023/10/10 06:39:18;;;;;;;3.30;1.53;;;;;;;;;;5009765;28;20451;-69
2023/10/10 06:41:51;;;;;;;2.40;1.30;;;;;;;;;;5014008;28;20531;-68
2023/10/10 06:44:31;;;;;;;6.53;2.03;;;;;;;;;;5012872;28;20525;-68
2023/10/10 06:46:59;;;;;;;4.37;2.23;;;;;;;;;;5005882;28;20433;-68
2023/10/10 06:49:43;;;;;;;4.07;2.13;;;;;;;;;;5007578;28;20435;-69
2023/10/10 06:52:10;;;;;;;4.77;2.17;;;;;;;;;;5030987;28;20474;-70
2023/10/10 06:54:44;;;;;;;6.23;1.77;;;;;;;;;;5011527;28;20475;-68
2023/10/10 06:57:17;;;;;;;2.70;1.93;;;;;;;;;;5012758;28;20479;-69
2023/10/10 06:59:44;;;;;;;3.00;1.50;;;;;;;;;;5012345;28;20484;-68
2023/10/10 07:02:20;;;;;;;5.07;2.90;;;;;;;;;;5012713;28;20456;-69
2023/10/10 07:04:52;;;;;;;6.63;2.00;;;;;;;;;;5014498;28;20462;-68
2023/10/10 07:07:20;;;;;;;6.50;2.47;;;;;;;;;;5005395;28;20511;-69
2023/10/10 07:09:57;;;;;;;4.63;2.70;;;;;;;;;;5014407;28;21038;-68
2023/10/10 07:12:25;;;;;;;6.57;1.87;;;;;;;;;;5021450;28;20502;-68
2023/10/10 07:14:54;;;;;;;6.03;3.60;;;;;;;;;;5008950;28;20484;-68
2023/10/10 07:17:27;;;;;;;4.60;2.50;;;;;;;;;;5004851;28;20460;-68
2023/10/10 07:22:41;;;;;;;4.80;1.77;;;;;;;;;;5025755;28;20446;-68
2023/10/10 07:25:25;;;;;;;5.90;1.47;;;;;;;;;;5007461;28;20571;-68
2023/10/10 07:27:52;;;;;;;7.67;2.70;;;;;;;;;;5015125;28;20512;-68
2023/10/10 07:30:20;;;;;;;8.20;2.60;;;;;;;;;;5002209;28;20462;-69
2023/10/10 07:32:48;;;;;;;5.43;1.93;;;;;;;;;;5015062;28;20463;-70
2023/10/10 07:35:15;;;;;;;4.47;1.77;;;;;;;;;;5012268;28;20572;-69
2023/10/10 07:37:43;;;;;;;7.50;2.67;;;;;;;;;;5022578;28;20460;-69
2023/10/10 07:40:21;;;;;;;7.20;3.30;;;;;;;;;;5008432;28;20479;-70
2023/10/10 07:42:50;;;;;;;5.60;2.20;;;;;;;;;;5006169;28;20470;-69
2023/10/10 07:45:26;;;;;;;4.07;2.67;;;;;;;;;;5006734;28;20523;-70
2023/10/10 07:50:47;;;;;;;5.13;2.13;;;;;;;;;;5018842;28;20438;-69
2023/10/10 07:53:14;;;;;;;7.17;2.93;;;;;;;;;;4996323;28;20455;-68
2023/10/10 07:56:00;;;;;;;9.80;2.57;;;;;;;;;;4991102;28;20826;-68
2023/10/10 07:58:42;;;;;;;9.20;2.93;;;;;;;;;;5019297;28;20463;-69
2023/10/10 08:01:10;;;;;;;9.03;2.37;;;;;;;;;;5008480;28;20475;-68
2023/10/10 08:03:37;;;;;;;7.60;3.10;;;;;;;;;;5010822;28;20460;-68
2023/10/10 08:06:08;;;;;;;5.60;2.33;;;;;;;;;;5008326;28;20967;-67
2023/10/10 08:08:36;;;;;;;5.50;2.73;;;;;;;;;;5005848;28;20544;-67
2023/10/10 08:11:12;;;;;;;9.60;2.37;;;;;;;;;;5019592;28;20498;-67
2023/10/10 08:13:42;;;;;;;10.43;3.10;;;;;;;;;;5012561;28;20477;-68
2023/10/10 08:16:09;;;;;;;5.80;2.70;;;;;;;;;;5015968;28;20462;-68
2023/10/10 08:18:52;;;;;;;8.30;3.83;;;;;;;;;;5015657;28;20452;-68
2023/10/10 08:21:22;;;;;;;9.40;3.40;;;;;;;;;;5005293;28;20483;-69
2023/10/10 08:23:56;;;;;;;6.40;3.70;;;;;;;;;;5008090;28;20499;-68
2023/10/10 08:26:29;;;;;;;10.13;4.97;;;;;;;;;;5012585;28;20452;-69
2023/10/10 08:28:56;;;;;;;6.83;2.80;;;;;;;;;;5022827;28;20456;-68
2023/10/10 08:31:24;;;;;;;7.57;3.37;;;;;;;;;;5009818;28;20837;-68
2023/10/10 08:33:51;;;;;;;11.70;3.50;;;;;;;;;;5016444;28;20464;-68
2023/10/10 08:36:26;;;;;;;8.27;3.20;;;;;;;;;;5009696;28;20635;-68
2023/10/10 08:38:54;;;;;;;12.23;5.50;;;;;;;;;;5013861;28;20896;-67
2023/10/10 08:41:27;;;;;;;10.27;5.20;;;;;;;;;;5005425;28;20480;-68
2023/10/10 08:43:57;;;;;;;5.53;2.90;;;;;;;;;;5022704;28;20993;-68
2023/10/10 08:46:26;;;;;;;7.60;3.70;;;;;;;;;;5018197;28;20483;-67
2023/10/10 08:48:55;;;;;;;9.53;4.20;;;;;;;;;;5003187;28;20538;-68
2023/10/10 08:51:22;;;;;;;3.93;2.97;;;;;;;;;;5012233;28;20467;-67
2023/10/10 08:53:50;;;;;;;9.40;3.50;;;;;;;;;;5011908;28;20480;-68
2023/10/10 08:56:17;;;;;;;6.73;2.90;;;;;;;;;;5006228;28;20494;-67
2023/10/10 08:58:46;;;;;;;7.30;3.87;;;;;;;;;;5008101;28;20792;-68
2023/10/10 09:01:13;;;;;;;9.57;3.57;;;;;;;;;;5010646;28;20702;-68
2023/10/10 09:03:45;;;;;;;8.57;4.47;;;;;;;;;;5008662;28;20481;-68
2023/10/10 09:06:16;;;;;;;5.97;3.33;;;;;;;;;;5013386;28;20476;-68
2023/10/10 09:08:44;;;;;;;24.03;10.20;;;;;;;;;;5019225;28;20459;-68
2023/10/10 09:11:12;;;;;;;6.30;4.07;;;;;;;;;;5000695;28;20452;-68
2023/10/10 09:13:51;;;;;;;9.90;3.27;;;;;;;;;;5007026;28;20507;-68
2023/10/10 09:16:20;;;;;;;7.87;4.47;;;;;;;;;;5004618;28;20486;-68
2023/10/10 09:19:08;;;;;;;6.43;2.87;;;;;;;;;;5003337;28;20931;-69
2023/10/10 09:21:46;;;;;;;4.40;2.33;;;;;;;;;;5004377;28;20468;-69
2023/10/10 09:24:26;;;;;;;6.40;3.20;;;;;;;;;;5010400;28;20536;-68
2023/10/10 09:26:56;;;;;;;5.20;2.60;;;;;;;;;;5019883;28;20478;-69
2023/10/10 09:29:42;;;;;;;5.33;3.07;;;;;;;;;;5004814;28;20512;-67
2023/10/10 09:32:13;;;;;;;5.63;2.57;;;;;;;;;;5004598;28;20455;-68
2023/10/10 09:34:41;;;;;;;7.67;3.53;;;;;;;;;;5016323;28;20479;-68
2023/10/10 09:37:10;;;;;;;5.47;2.67;;;;;;;;;;5012921;28;20467;-68
2023/10/10 09:39:37;;;;;;;6.40;2.97;;;;;;;;;;5021424;28;20469;-68
2023/10/10 09:42:23;;;;;;;4.03;2.30;;;;;;;;;;5005390;28;20476;-69
2023/10/10 09:45:17;;;;;;;4.23;3.20;;;;;;;;;;4999493;28;20491;-69
2023/10/10 09:47:52;;;;;;;7.83;2.37;;;;;;;;;;5007772;28;20531;-69
2023/10/10 09:50:35;;;;;;;8.07;3.97;;;;;;;;;;5011612;28;20445;-69
2023/10/10 09:53:02;;;;;;;7.93;2.60;;;;;;;;;;5005448;28;20543;-69
2023/10/10 09:55:42;;;;;;;15.10;7.60;;;;;;;;;;5021615;28;20472;-69
2023/10/10 09:58:26;;;;;;;10.10;3.50;;;;;;;;;;5013459;28;20472;-69
2023/10/10 10:01:03;;;;;;;17.33;3.47;;;;;;;;;;5005764;28;20982;-69
2023/10/10 10:03:40;;;;;;;12.27;5.03;;;;;;;;;;5003274;28;20494;-67
2023/10/10 10:06:34;;;;;;;8.67;4.07;;;;;;;;;;5011723;28;20467;-67
2023/10/10 10:09:16;;;;;;;7.93;3.20;;;;;;;;;;5008447;28;20452;-68
2023/10/10 10:11:48;;;;;;;6.07;3.47;;;;;;;;;;5011399;28;20474;-67
2023/10/10 10:14:21;;;;;;;7.03;3.17;;;;;;;;;;5004336;28;20476;-67
2023/10/10 10:16:54;;;;;;;7.00;3.20;;;;;;;;;;5011836;28;20475;-68
2023/10/10 10:19:27;;;;;;;8.43;3.27;;;;;;;;;;5003768;28;20457;-68
2023/10/10 10:22:08;;;;;;;5.83;2.73;;;;;;;;;;5002651;28;20469;-69
2023/10/10 10:24:54;;;;;;;7.10;3.37;;;;;;;;;;5012023;28;20860;-69
2023/10/10 10:27:25;;;;;;;7.20;3.13;;;;;;;;;;5006264;28;20459;-69
2023/10/10 10:29:55;;;;;;;8.47;3.30;;;;;;;;;;5001565;28;20460;-67
2023/10/10 10:32:24;;;;;;;8.70;4.30;;;;;;;;;;5009587;28;20680;-67
2023/10/10 10:34:56;;;;;;;5.60;2.70;;;;;;;;;;5004758;28;20570;-68
2023/10/10 10:37:28;;;;;;;4.57;2.47;;;;;;;;;;5009463;28;20609;-69
2023/10/10 10:42:50;;;;;;;13.50;3.20;;;;;;;;;;4999144;28;20562;-68
2023/10/10 10:45:36;;;;;;;6.23;2.80;;;;;;;;;;4999237;28;20475;-68
2023/10/10 10:48:09;;;;;;;7.20;3.30;;;;;;;;;;5012775;28;20497;-69
2023/10/10 10:50:56;;;;;;;9.30;3.07;;;;;;;;;;5002166;28;20860;-68
2023/10/10 10:53:35;;;;;;;8.50;3.10;;;;;;;;;;4999774;28;20840;-68
2023/10/10 11:01:36;;;;;;;5.20;2.20;;;;;;;;;;5015620;28;21135;-68
2023/10/10 11:04:05;;;;;;;9.87;3.87;;;;;;;;;;5009284;28;20862;-68
2023/10/10 11:06:32;;;;;;;6.43;3.60;;;;;;;;;;5006794;28;20500;-69
2023/10/10 11:09:09;;;;;;;8.50;3.17;;;;;;;;;;5013474;28;20464;-68
2023/10/10 11:11:40;;;;;;;10.63;3.80;;;;;;;;;;5017017;28;20448;-68
2023/10/10 11:14:18;;;;;;;7.07;2.87;;;;;;;;;;5006075;28;20473;-68
2023/10/10 11:16:46;;;;;;;6.33;2.40;;;;;;;;;;5004283;28;20452;-67
2023/10/10 11:19:38;;;;;;;9.57;3.13;;;;;;;;;;5015802;28;20451;-69
2023/10/10 11:22:06;;;;;;;5.10;2.20;;;;;;;;;;5006197;28;21417;-69
2023/10/10 11:24:34;;;;;;;6.37;3.10;;;;;;;;;;5020170;28;20463;-69
2023/10/10 11:27:21;;;;;;;6.43;2.90;;;;;;;;;;5018214;28;20456;-69
2023/10/10 11:29:50;;;;;;;5.83;2.90;;;;;;;;;;5033815;28;20483;-69
2023/10/10 11:32:23;;;;;;;7.13;2.80;;;;;;;;;;5012981;28;20889;-69
2023/10/10 11:34:56;;;;;;;7.60;2.73;;;;;;;;;;5024895;28;20552;-69
2023/10/10 11:37:25;;;;;;;7.67;3.50;;;;;;;;;;5017802;28;20495;-68
2023/10/10 11:39:57;;;;;;;5.57;3.53;;;;;;;;;;5021820;28;20909;-68
2023/10/10 11:42:26;;;;;;;4.87;3.20;;;;;;;;;;5015024;28;20479;-68
2023/10/10 11:44:54;;;;;;;6.63;3.07;;;;;;;;;;5017715;28;20482;-68
2023/10/10 11:47:25;;;;;;;15.20;4.20;;;;;;;;;;5010383;28;20556;-68
2023/10/10 11:50:05;;;;;;;6.57;3.20;;;;;;;;;;5011804;28;20452;-68
2023/10/10 11:52:33;;;;;;;8.23;4.03;;;;;;;;;;5010196;28;20951;-68
2023/10/10 11:55:00;;;;;;;7.50;3.23;;;;;;;;;;5025716;28;20522;-68
2023/10/10 11:57:29;;;;;;;18.03;3.40;;;;;;;;;;5006138;28;20461;-69
2023/10/10 11:59:58;;;;;;;7.50;3.30;;;;;;;;;;4998316;28;20550;-69
2023/10/10 12:02:35;;;;;;;5.77;3.20;;;;;;;;;;5013873;28;20526;-69
2023/10/10 12:05:36;;;;;;;7.20;2.80;;;;;;;;;;5006768;28;20551;-69
2023/10/10 12:07:53;;;;;;;8.07;3.73;;;;;;;;;;5009530;28;20456;-69
2023/10/10 12:10:23;;;;;;;9.47;2.80;;;;;;;;;;5013594;28;20470;-69
2023/10/10 12:12:53;;;;;;;6.33;3.00;;;;;;;;;;5014737;28;20545;-69
2023/10/10 12:15:22;;;;;;;10.47;4.13;;;;;;;;;;5013502;28;20518;-68
2023/10/10 12:17:51;;;;;;;6.33;2.80;;;;;;;;;;5010446;28;20456;-69
2023/10/10 12:20:22;;;;;;;7.47;3.07;;;;;;;;;;5002007;28;20877;-69
2023/10/10 12:22:49;;;;;;;6.27;2.83;;;;;;;;;;5012285;28;20476;-68
2023/10/10 12:25:16;;;;;;;6.80;3.27;;;;;;;;;;5002990;28;20484;-68
2023/10/10 12:27:46;;;;;;;7.03;2.80;;;;;;;;;;5008227;28;20990;-69
2023/10/10 12:30:18;;;;;;;3.57;1.90;;;;;;;;;;5006418;28;20463;-68
2023/10/10 12:32:46;;;;;;;5.97;2.60;;;;;;;;;;5019547;28;20493;-69
2023/10/10 12:35:13;;;;;;;8.20;3.40;;;;;;;;;;5008285;28;20864;-68
2023/10/10 12:37:44;;;;;;;8.23;2.60;;;;;;;;;;5003425;28;20463;-69
2023/10/10 12:40:11;;;;;;;10.23;4.00;;;;;;;;;;5010935;28;20452;-69
2023/10/10 12:42:39;;;;;;;5.93;2.57;;;;;;;;;;5019838;28;20565;-68
2023/10/10 12:45:07;;;;;;;7.17;2.90;;;;;;;;;;5014312;28;21195;-69
2023/10/10 12:47:34;;;;;;;7.60;2.97;;;;;;;;;;5012481;28;20470;-68
2023/10/10 12:50:04;;;;;;;6.27;2.50;;;;;;;;;;5006587;28;20476;-68
2023/10/10 12:52:35;;;;;;;4.00;2.70;;;;;;;;;;5012065;28;20519;-68
2023/10/10 12:55:09;;;;;;;7.20;2.83;;;;;;;;;;4993201;28;20980;-68
2023/10/10 12:57:37;;;;;;;3.63;2.10;;;;;;;;;;5009086;28;20463;-68
2023/10/10 13:02:49;;;;;;;6.77;3.53;;;;;;;;;;5017520;28;20474;-69
2023/10/10 13:05:17;;;;;;;9.70;3.03;;;;;;;;;;5008153;28;20478;-69
2023/10/10 13:07:44;;;;;;;6.87;2.67;;;;;;;;;;5009877;28;20460;-69
2023/10/10 13:10:13;;;;;;;7.33;2.93;;;;;;;;;;5008185;28;20463;-68
2023/10/10 13:12:45;;;;;;;10.03;2.73;;;;;;;;;;5013793;28;20462;-68
2023/10/10 13:15:18;;;;;;;6.50;2.60;;;;;;;;;;5010016;28;20492;-69
2023/10/10 13:17:53;;;;;;;5.57;2.57;;;;;;;;;;5009188;28;20447;-69
2023/10/10 13:20:21;;;;;;;6.93;3.10;;;;;;;;;;5003728;28;20509;-69
2023/10/10 13:22:50;;;;;;;6.73;3.00;;;;;;;;;;5019620;28;20509;-68
2023/10/10 13:25:20;;;;;;;8.67;3.00;;;;;;;;;;5015129;28;20522;-69
2023/10/10 13:27:48;;;;;;;6.80;3.00;;;;;;;;;;5015954;28;20464;-68
2023/10/10 13:30:15;;;;;;;5.87;3.10;;;;;;;;;;5009020;28;20518;-69
2023/10/10 13:32:43;;;;;;;8.37;3.40;;;;;;;;;;5005899;28;20824;-68
2023/10/10 13:35:10;;;;;;;7.03;2.87;;;;;;;;;;5005711;28;20503;-69
2023/10/10 13:37:41;;;;;;;4.93;2.93;;;;;;;;;;5011009;28;20470;-68
2023/10/10 13:40:08;;;;;;;5.20;2.90;;;;;;;;;;5015517;28;20809;-68
2023/10/10 13:42:40;;;;;;;6.17;3.30;;;;;;;;;;4995062;28;20471;-68
2023/10/10 13:45:12;;;;;;;7.13;3.00;;;;;;;;;;5008762;28;20530;-69
2023/10/10 13:47:40;;;;;;;6.20;2.63;;;;;;;;;;5003693;28;20843;-68
2023/10/10 13:52:52;;;;;;;5.00;2.17;;;;;;;;;;5001253;28;20444;-69
2023/10/10 13:55:21;;;;;;;7.50;2.83;;;;;;;;;;5014176;28;20503;-68
2023/10/10 13:57:50;;;;;;;6.87;2.73;;;;;;;;;;5010726;28;20545;-68
2023/10/10 14:00:29;;;;;;;6.13;3.30;;;;;;;;;;5016123;28;20522;-68
2023/10/10 14:02:59;;;;;;;6.60;2.50;;;;;;;;;;5006842;28;20483;-68
2023/10/10 14:05:29;;;;;;;9.43;3.37;;;;;;;;;;5014713;28;20490;-68
2023/10/10 14:07:56;;;;;;;5.07;2.60;;;;;;;;;;5010071;28;20479;-68
2023/10/10 14:10:24;;;;;;;5.90;2.40;;;;;;;;;;5015499;28;20464;-69
2023/10/10 14:12:52;;;;;;;5.50;2.50;;;;;;;;;;5006051;28;20456;-69
2023/10/10 14:15:19;;;;;;;7.03;2.87;;;;;;;;;;5017411;28;20578;-68
2023/10/10 14:17:47;;;;;;;5.73;2.70;;;;;;;;;;5007820;28;20484;-68
2023/10/10 14:20:21;;;;;;;8.07;2.77;;;;;;;;;;5004757;28;20973;-68
2023/10/10 14:22:49;;;;;;;6.67;3.73;;;;;;;;;;5012310;28;20474;-68
2023/10/10 14:25:17;;;;;;;11.00;3.00;;;;;;;;;;5016225;28;20501;-69
2023/10/10 14:27:44;;;;;;;10.23;2.73;;;;;;;;;;5005670;28;20453;-68
2023/10/10 14:30:23;;;;;;;7.00;2.87;;;;;;;;;;5074118;22;20501;-65
2023/10/10 14:32:54;;;;;;;10.03;4.63;;;;;;;;;;5047395;28;20450;-66
2023/10/10 14:35:23;;;;;;;5.47;2.80;;;;;;;;;;5040597;28;20478;-65
2023/10/10 14:37:54;;;;;;;5.40;2.53;;;;;;;;;;5031970;28;20439;-65
2023/10/10 14:40:23;;;;;;;7.43;3.13;;;;;;;;;;5035604;28;20557;-66
2023/10/10 14:42:52;;;;;;;8.17;3.10;;;;;;;;;;5031210;28;20569;-66
2023/10/10 14:45:23;;;;;;;9.20;3.43;;;;;;;;;;5032430;28;20493;-65
2023/10/10 14:47:51;;;;;;;9.23;3.80;;;;;;;;;;5025211;28;20590;-67
2023/10/10 14:50:23;;;;;;;5.30;2.43;;;;;;;;;;5038523;28;20943;-67
2023/10/10 14:52:50;;;;;;;13.97;3.40;;;;;;;;;;5029252;28;20486;-67
2023/10/10 14:55:27;;;;;;;5.23;2.57;;;;;;;;;;5044098;28;21035;-67
2023/10/10 14:57:55;;;;;;;6.07;2.93;;;;;;;;;;5031908;28;20458;-67
2023/10/10 15:00:27;;;;;;;9.07;3.47;;;;;;;;;;5038797;28;20446;-68
2023/10/10 15:02:55;;;;;;;5.77;2.70;;;;;;;;;;5034781;28;20576;-67
2023/10/10 15:05:23;;;;;;;4.87;2.60;;;;;;;;;;5034881;28;20879;-66
2023/10/10 15:07:52;;;;;;;9.17;3.50;;;;;;;;;;5038963;28;20537;-66
2023/10/10 15:10:25;;;;;;;6.33;3.37;;;;;;;;;;5035006;28;20470;-67
2023/10/10 15:12:52;;;;;;;7.20;3.23;;;;;;;;;;5033394;28;20467;-67
2023/10/10 15:15:19;;;;;;;7.23;2.73;;;;;;;;;;5041781;28;21246;-67
2023/10/10 15:17:49;;;;;;;11.80;3.37;;;;;;;;;;5039572;28;20512;-67
2023/10/10 15:20:17;;;;;;;9.43;3.63;;;;;;;;;;5034745;28;20458;-66
2023/10/10 15:22:44;;;;;;;10.20;4.23;;;;;;;;;;5042105;28;20484;-66
2023/10/10 15:25:11;;;;;;;6.83;3.10;;;;;;;;;;5043393;28;20485;-66
2023/10/10 15:27:41;;;;;;;7.67;3.30;;;;;;;;;;5043265;28;20451;-67
2023/10/10 15:30:09;;;;;;;8.40;3.50;;;;;;;;;;5034588;28;20478;-66
2023/10/10 15:32:44;;;;;;;8.00;2.87;;;;;;;;;;5044498;28;20493;-66
2023/10/10 15:35:13;;;;;;;8.73;3.10;;;;;;;;;;5031720;28;20489;-66
2023/10/10 15:37:42;;;;;;;6.03;3.13;;;;;;;;;;5036267;28;20450;-66
2023/10/10 15:40:13;;;;;;;4.60;3.03;;;;;;;;;;5032988;28;20572;-66
2023/10/10 15:42:40;;;;;;;7.67;2.87;;;;;;;;;;5041867;28;20269;-66
2023/10/10 15:45:07;;;;;;;7.40;3.80;;;;;;;;;;5040218;28;20539;-66
2023/10/10 15:47:34;;;;;;;4.93;3.30;;;;;;;;;;5040762;28;20294;-66
2023/10/10 15:50:02;;;;;;;7.23;3.30;;;;;;;;;;5029676;28;20220;-66
2023/10/10 15:52:33;;;;;;;5.87;2.83;;;;;;;;;;5033118;28;20208;-66
2023/10/10 15:55:05;;;;;;;10.77;3.60;;;;;;;;;;5035995;28;20263;-66
2023/10/10 15:57:32;;;;;;;4.60;2.40;;;;;;;;;;5040422;28;20196;-66
2023/10/10 16:00:10;;;;;;;7.33;3.70;;;;;;;;;;5034542;28;20208;-66
2023/10/10 16:02:39;;;;;;;7.20;2.67;;;;;;;;;;5046582;28;20498;-66
2023/10/10 16:05:07;;;;;;;10.90;3.43;;;;;;;;;;5044279;28;20488;-66
2023/10/10 16:07:35;;;;;;;5.33;3.30;;;;;;;;;;5032215;28;20560;-66
2023/10/10 16:10:07;;;;;;;5.70;3.57;;;;;;;;;;5035033;28;21064;-66
2023/10/10 16:12:35;;;;;;;8.23;3.70;;;;;;;;;;5042655;28;20443;-67
2023/10/10 16:15:02;;;;;;;10.13;3.67;;;;;;;;;;5038628;28;21003;-66
2023/10/10 16:17:33;;;;;;;6.67;3.40;;;;;;;;;;5043487;28;20815;-66
2023/10/10 16:20:05;;;;;;;14.40;3.03;;;;;;;;;;5036819;28;21003;-66
2023/10/10 16:22:35;;;;;;;4.93;3.03;;;;;;;;;;5034297;28;20479;-66
2023/10/10 16:25:03;;;;;;;9.77;2.70;;;;;;;;;;5030939;28;20481;-66
2023/10/10 16:27:32;;;;;;;7.70;3.20;;;;;;;;;;5034590;28;20458;-66
2023/10/10 16:30:00;;;;;;;7.37;2.67;;;;;;;;;;5033194;28;20459;-66
2023/10/10 16:32:27;;;;;;;5.90;2.60;;;;;;;;;;5038378;28;20679;-66
2023/10/10 16:34:54;;;;;;;5.30;2.43;;;;;;;;;;5037872;28;20834;-66
2023/10/10 16:37:24;;;;;;;6.80;3.10;;;;;;;;;;5048558;28;20442;-66
2023/10/10 16:39:52;;;;;;;7.10;3.33;;;;;;;;;;5049186;28;20447;-66
2023/10/10 16:42:23;;;;;;;6.80;3.27;;;;;;;;;;5040596;28;20482;-66
2023/10/10 16:44:53;;;;;;;8.07;3.00;;;;;;;;;;5039148;28;21019;-66
2023/10/10 16:47:21;;;;;;;11.37;2.87;;;;;;;;;;5039779;28;20540;-65
2023/10/10 16:49:50;;;;;;;8.37;3.17;;;;;;;;;;5035253;28;20458;-66
2023/10/10 16:52:17;;;;;;;6.87;2.67;;;;;;;;;;5037669;28;20462;-68
2023/10/10 16:54:50;;;;;;;7.60;2.50;;;;;;;;;;5044950;28;20459;-66
2023/10/10 16:57:17;;;;;;;5.93;2.70;;;;;;;;;;5040904;28;20505;-67
2023/10/10 16:59:46;;;;;;;6.93;3.07;;;;;;;;;;5044047;28;20586;-66
2023/10/10 17:02:14;;;;;;;10.80;3.50;;;;;;;;;;5016039;28;20451;-66
2023/10/10 17:04:43;;;;;;;7.07;3.40;;;;;;;;;;5048310;28;20960;-67
2023/10/10 17:07:11;;;;;;;13.30;3.30;;;;;;;;;;5051521;28;20814;-67
2023/10/10 17:09:38;;;;;;;9.83;3.40;;;;;;;;;;5044533;28;20451;-68
2023/10/10 17:12:06;;;;;;;6.17;3.80;;;;;;;;;;5047057;28;20850;-67